Главная страница
METAR-TAF:

METAR-TAF

Аэропорты :

Дакар, Сенегал

широта: 14-44N, долгота: 017-30W, высота над уровнем моря: 27 м

Текущие метеонаблюдения

Эта сводка был подготовлена 47 минут назад, в 22:00 UTC
Ветер 4 Узел от западный-юго-западный
Температура 24°C
Влажность 78%
Давление 1013 hPa
Видимость: 8000 м
Отдельные облака на высоте 1300 фута

METAR: GOOY 222200Z 24004KT 8000 SCT013 24/20 Q1013

Время: 22:47 (22:47 UTC)

Прогноз

Эта сводка был подготовлена 5 часа и 17 минут назад, в 17:30 UTC
Прогноз действительный с 22-го 18 UTC до 23-го 24 UTC
Ветер 8 Узел от западный
Видимость 10 км и более
Рассеянная облачность на высоте 1300 фута
изменения
С 23-го 09 UTC до 23-го 11 UTC
Отдельные облака на высоте 1200 фута

TAF: GOOY 221730Z 2218/2324 26008KT 9999 BKN013 BECMG 2309/2311 SCT012

Метеонаблюдения и прогнозы для более 4000 аэропортов (сводки METAR и TAF).

Имеющиеся станции представлены на карте желтыми и красными точками.

Чтобы увидеть название станции, наведите на нее мышь.

Затем щелкните, чтобы увидеть метеонаблюдения и метеопрогнозы.

Управление картой: чтобы увеличить масштаб, щелкните зеленые кнопки с черным крестиком; чтобы уменьшить масштаб, щелкните зеленую кнопку с тире; для просмотра соседних карт щелкайте зеленые стрелки.


METAR-TAF: